sensor_id;sensor_type;location;lat;lon;timestamp;P1;durP1;ratioP1;P2;durP2;ratioP2
78668;SDS011;67984;45.118;20.724;2023-09-19T00:03:43;5.38;;;2.53;;
78668;SDS011;67984;45.118;20.724;2023-09-19T00:13:43;4.10;;;3.17;;
78668;SDS011;67984;45.118;20.724;2023-09-19T00:23:44;7.20;;;2.65;;
78668;SDS011;67984;45.118;20.724;2023-09-19T00:33:45;6.50;;;2.58;;
78668;SDS011;67984;45.118;20.724;2023-09-19T00:43:46;12.13;;;4.33;;
78668;SDS011;67984;45.118;20.724;2023-09-19T00:53:47;6.57;;;4.07;;
78668;SDS011;67984;45.118;20.724;2023-09-19T01:03:48;5.77;;;3.17;;
78668;SDS011;67984;45.118;20.724;2023-09-19T01:33:59;11.90;;;3.88;;
78668;SDS011;67984;45.118;20.724;2023-09-19T01:44:00;4.43;;;3.10;;
78668;SDS011;67984;45.118;20.724;2023-09-19T01:54:03;4.40;;;3.90;;
78668;SDS011;67984;45.118;20.724;2023-09-19T02:04:07;7.15;;;3.75;;
78668;SDS011;67984;45.118;20.724;2023-09-19T02:14:08;5.07;;;2.97;;
78668;SDS011;67984;45.118;20.724;2023-09-19T02:24:09;10.15;;;4.45;;
78668;SDS011;67984;45.118;20.724;2023-09-19T02:34:10;5.85;;;3.38;;
78668;SDS011;67984;45.118;20.724;2023-09-19T02:44:11;7.35;;;3.03;;
78668;SDS011;67984;45.118;20.724;2023-09-19T02:54:11;7.13;;;4.15;;
78668;SDS011;67984;45.118;20.724;2023-09-19T03:04:12;6.40;;;3.67;;
78668;SDS011;67984;45.118;20.724;2023-09-19T03:14:13;6.93;;;3.42;;
78668;SDS011;67984;45.118;20.724;2023-09-19T03:24:15;8.98;;;4.60;;
78668;SDS011;67984;45.118;20.724;2023-09-19T03:34:16;6.60;;;4.03;;
78668;SDS011;67984;45.118;20.724;2023-09-19T03:44:18;9.45;;;4.38;;
78668;SDS011;67984;45.118;20.724;2023-09-19T03:54:18;5.13;;;3.60;;
78668;SDS011;67984;45.118;20.724;2023-09-19T04:04:20;6.20;;;4.35;;
78668;SDS011;67984;45.118;20.724;2023-09-19T04:14:20;6.68;;;4.18;;
78668;SDS011;67984;45.118;20.724;2023-09-19T04:24:21;6.18;;;3.80;;
78668;SDS011;67984;45.118;20.724;2023-09-19T04:34:22;6.97;;;4.00;;
78668;SDS011;67984;45.118;20.724;2023-09-19T04:44:24;8.88;;;3.97;;
78668;SDS011;67984;45.118;20.724;2023-09-19T04:54:24;7.53;;;4.43;;
78668;SDS011;67984;45.118;20.724;2023-09-19T05:04:25;6.00;;;4.20;;
78668;SDS011;67984;45.118;20.724;2023-09-19T05:14:25;5.88;;;3.88;;
78668;SDS011;67984;45.118;20.724;2023-09-19T05:24:26;4.90;;;4.07;;
78668;SDS011;67984;45.118;20.724;2023-09-19T05:34:26;11.63;;;4.13;;
78668;SDS011;67984;45.118;20.724;2023-09-19T05:44:30;7.55;;;4.15;;
78668;SDS011;67984;45.118;20.724;2023-09-19T05:54:32;4.72;;;3.13;;
78668;SDS011;67984;45.118;20.724;2023-09-19T06:04:36;8.77;;;3.78;;
78668;SDS011;67984;45.118;20.724;2023-09-19T06:14:42;11.55;;;4.45;;
78668;SDS011;67984;45.118;20.724;2023-09-19T06:24:43;4.63;;;2.85;;
78668;SDS011;67984;45.118;20.724;2023-09-19T06:34:44;7.85;;;3.30;;
78668;SDS011;67984;45.118;20.724;2023-09-19T06:44:46;11.65;;;5.18;;
78668;SDS011;67984;45.118;20.724;2023-09-19T06:54:47;14.87;;;3.50;;
78668;SDS011;67984;45.118;20.724;2023-09-19T07:04:50;6.55;;;4.10;;
78668;SDS011;67984;45.118;20.724;2023-09-19T07:14:51;8.68;;;2.42;;
78668;SDS011;67984;45.118;20.724;2023-09-19T07:24:52;6.25;;;3.78;;
78668;SDS011;67984;45.118;20.724;2023-09-19T07:34:52;9.02;;;2.92;;
78668;SDS011;67984;45.118;20.724;2023-09-19T07:44:55;5.13;;;3.60;;
78668;SDS011;67984;45.118;20.724;2023-09-19T07:54:55;10.38;;;3.47;;
78668;SDS011;67984;45.118;20.724;2023-09-19T08:04:57;5.22;;;3.47;;
78668;SDS011;67984;45.118;20.724;2023-09-19T08:15:04;4.88;;;4.15;;
78668;SDS011;67984;45.118;20.724;2023-09-19T08:25:05;6.38;;;3.40;;
78668;SDS011;67984;45.118;20.724;2023-09-19T08:55:13;8.65;;;3.67;;
78668;SDS011;67984;45.118;20.724;2023-09-19T09:05:21;6.38;;;3.65;;
78668;SDS011;67984;45.118;20.724;2023-09-19T09:15:23;5.47;;;3.58;;
78668;SDS011;67984;45.118;20.724;2023-09-19T09:25:23;10.48;;;3.53;;
78668;SDS011;67984;45.118;20.724;2023-09-19T09:45:44;5.55;;;3.95;;
78668;SDS011;67984;45.118;20.724;2023-09-19T09:56:08;6.80;;;4.00;;
78668;SDS011;67984;45.118;20.724;2023-09-19T10:16:25;7.57;;;4.28;;
78668;SDS011;67984;45.118;20.724;2023-09-19T10:26:26;11.80;;;3.40;;
78668;SDS011;67984;45.118;20.724;2023-09-19T10:36:32;7.05;;;3.67;;
78668;SDS011;67984;45.118;20.724;2023-09-19T10:46:36;9.40;;;3.53;;
78668;SDS011;67984;45.118;20.724;2023-09-19T10:56:39;8.60;;;3.75;;
78668;SDS011;67984;45.118;20.724;2023-09-19T11:06:42;6.97;;;3.00;;
78668;SDS011;67984;45.118;20.724;2023-09-19T11:27:09;11.88;;;4.60;;
78668;SDS011;67984;45.118;20.724;2023-09-19T11:47:14;12.93;;;4.32;;
78668;SDS011;67984;45.118;20.724;2023-09-19T11:57:20;15.07;;;4.63;;
78668;SDS011;67984;45.118;20.724;2023-09-19T12:07:20;13.48;;;4.75;;
78668;SDS011;67984;45.118;20.724;2023-09-19T12:17:22;18.73;;;4.68;;
78668;SDS011;67984;45.118;20.724;2023-09-19T12:27:24;17.08;;;5.32;;
78668;SDS011;67984;45.118;20.724;2023-09-19T12:37:26;13.05;;;5.00;;
78668;SDS011;67984;45.118;20.724;2023-09-19T12:47:30;16.60;;;5.22;;
78668;SDS011;67984;45.118;20.724;2023-09-19T12:57:34;11.68;;;4.55;;
78668;SDS011;67984;45.118;20.724;2023-09-19T13:07:42;13.60;;;3.92;;
78668;SDS011;67984;45.118;20.724;2023-09-19T13:17:44;11.23;;;4.47;;
78668;SDS011;67984;45.118;20.724;2023-09-19T13:37:46;14.15;;;4.47;;
78668;SDS011;67984;45.118;20.724;2023-09-19T13:47:49;10.75;;;3.65;;
78668;SDS011;67984;45.118;20.724;2023-09-19T13:57:49;12.75;;;4.65;;
78668;SDS011;67984;45.118;20.724;2023-09-19T14:07:50;15.20;;;4.20;;
78668;SDS011;67984;45.118;20.724;2023-09-19T14:17:51;21.15;;;4.93;;
78668;SDS011;67984;45.118;20.724;2023-09-19T14:27:51;16.80;;;5.25;;
78668;SDS011;67984;45.118;20.724;2023-09-19T14:37:52;15.07;;;4.45;;
78668;SDS011;67984;45.118;20.724;2023-09-19T14:47:53;27.90;;;3.85;;
78668;SDS011;67984;45.118;20.724;2023-09-19T14:57:56;14.00;;;1.77;;
78668;SDS011;67984;45.118;20.724;2023-09-19T15:07:59;15.48;;;3.28;;
78668;SDS011;67984;45.118;20.724;2023-09-19T15:17:59;11.80;;;2.83;;
78668;SDS011;67984;45.118;20.724;2023-09-19T15:28:00;14.32;;;2.45;;
78668;SDS011;67984;45.118;20.724;2023-09-19T15:38:07;14.45;;;2.05;;
78668;SDS011;67984;45.118;20.724;2023-09-19T15:48:08;10.07;;;2.42;;
78668;SDS011;67984;45.118;20.724;2023-09-19T15:58:08;8.75;;;2.03;;
78668;SDS011;67984;45.118;20.724;2023-09-19T16:08:09;6.28;;;1.63;;
78668;SDS011;67984;45.118;20.724;2023-09-19T16:18:10;14.30;;;1.92;;
78668;SDS011;67984;45.118;20.724;2023-09-19T16:28:11;4.22;;;1.70;;
78668;SDS011;67984;45.118;20.724;2023-09-19T16:38:13;7.97;;;1.70;;
78668;SDS011;67984;45.118;20.724;2023-09-19T16:48:13;16.02;;;1.67;;
78668;SDS011;67984;45.118;20.724;2023-09-19T16:58:14;11.48;;;1.95;;
78668;SDS011;67984;45.118;20.724;2023-09-19T17:08:15;12.98;;;3.65;;
78668;SDS011;67984;45.118;20.724;2023-09-19T17:18:15;14.48;;;2.67;;
78668;SDS011;67984;45.118;20.724;2023-09-19T17:28:16;6.70;;;2.60;;
78668;SDS011;67984;45.118;20.724;2023-09-19T17:38:17;7.87;;;1.80;;
78668;SDS011;67984;45.118;20.724;2023-09-19T17:48:17;4.28;;;1.27;;
78668;SDS011;67984;45.118;20.724;2023-09-19T17:58:18;4.57;;;2.10;;
78668;SDS011;67984;45.118;20.724;2023-09-19T18:08:19;5.27;;;1.40;;
78668;SDS011;67984;45.118;20.724;2023-09-19T18:18:22;8.52;;;2.25;;
78668;SDS011;67984;45.118;20.724;2023-09-19T18:28:22;11.48;;;2.42;;
78668;SDS011;67984;45.118;20.724;2023-09-19T18:38:23;4.80;;;1.92;;
78668;SDS011;67984;45.118;20.724;2023-09-19T18:48:25;6.18;;;1.83;;
78668;SDS011;67984;45.118;20.724;2023-09-19T18:58:26;8.75;;;1.63;;
78668;SDS011;67984;45.118;20.724;2023-09-19T19:08:27;4.68;;;1.60;;
78668;SDS011;67984;45.118;20.724;2023-09-19T19:18:28;7.20;;;1.98;;
78668;SDS011;67984;45.118;20.724;2023-09-19T19:28:30;4.57;;;1.42;;
78668;SDS011;67984;45.118;20.724;2023-09-19T19:38:31;3.70;;;1.02;;
78668;SDS011;67984;45.118;20.724;2023-09-19T19:48:34;7.00;;;1.80;;
78668;SDS011;67984;45.118;20.724;2023-09-19T19:58:37;14.13;;;2.15;;
78668;SDS011;67984;45.118;20.724;2023-09-19T20:08:38;6.68;;;2.28;;
78668;SDS011;67984;45.118;20.724;2023-09-19T20:18:38;6.63;;;1.40;;
78668;SDS011;67984;45.118;20.724;2023-09-19T20:28:40;3.40;;;1.67;;
78668;SDS011;67984;45.118;20.724;2023-09-19T20:38:40;9.60;;;3.08;;
78668;SDS011;67984;45.118;20.724;2023-09-19T20:48:45;9.20;;;3.15;;
78668;SDS011;67984;45.118;20.724;2023-09-19T20:58:47;11.35;;;5.43;;
78668;SDS011;67984;45.118;20.724;2023-09-19T21:18:51;14.93;;;3.80;;
78668;SDS011;67984;45.118;20.724;2023-09-19T21:28:51;14.05;;;3.38;;
78668;SDS011;67984;45.118;20.724;2023-09-19T21:38:52;8.77;;;3.53;;
78668;SDS011;67984;45.118;20.724;2023-09-19T21:48:54;12.68;;;3.33;;
78668;SDS011;67984;45.118;20.724;2023-09-19T21:58:55;13.63;;;2.72;;
78668;SDS011;67984;45.118;20.724;2023-09-19T22:08:56;11.68;;;2.83;;
78668;SDS011;67984;45.118;20.724;2023-09-19T22:18:57;11.15;;;2.13;;
78668;SDS011;67984;45.118;20.724;2023-09-19T22:28:57;6.93;;;3.25;;
78668;SDS011;67984;45.118;20.724;2023-09-19T22:38:58;6.83;;;2.60;;
78668;SDS011;67984;45.118;20.724;2023-09-19T22:49:01;8.57;;;3.22;;
78668;SDS011;67984;45.118;20.724;2023-09-19T22:59:02;8.23;;;3.17;;
78668;SDS011;67984;45.118;20.724;2023-09-19T23:09:05;14.80;;;4.38;;
78668;SDS011;67984;45.118;20.724;2023-09-19T23:29:28;4.82;;;1.85;;
78668;SDS011;67984;45.118;20.724;2023-09-19T23:39:29;8.90;;;3.28;;
78668;SDS011;67984;45.118;20.724;2023-09-19T23:49:30;10.60;;;3.83;;
78668;SDS011;67984;45.118;20.724;2023-09-19T23:59:32;10.98;;;3.03;;
